Main page
METAR-TAF:

METAR-TAF

Airports :

Tel Aviv / Ben Gurion, Israel

Ben Gurion Airport

latitude: 32-00N, longitude: 034-54E, elevation: 40 m

Current weather observation

The report was made 19 minutes ago, at 07:50 UTC
Wind 2 kt from variable directions
Temperature 18°C
Humidity 49%
Pressure 1024 hPa
Visibility 10 km or more
no clouds below 1500 m and no cumulonimbus

METAR: LLBG 040750Z VRB02KT CAVOK 18/07 Q1024 NOSIG

Time: 10:09 (08:09 UTC)

Forecast

The report was made 3 hours and 9 minutes ago, at 05:00 UTC
Forecast valid from 04 at 06 UTC to 05 at 06 UTC
Wind 3 kt from variable directions
Visibility 10 km or more
no clouds below 1500 m and no cumulonimbus
Becoming
from 04 at 08 UTC to 04 at 10 UTC
Wind 8 kt from the North
Becoming
from 04 at 14 UTC to 04 at 16 UTC
Wind 4 kt from the Northeast
Becoming
from 04 at 17 UTC to 04 at 19 UTC
Wind 3 kt from variable directions

TAF: LLBG 040500Z 0406/0506 VRB03KT CAVOK BECMG 0408/0410 35008KT BECMG 0414/0416 04004KT BECMG 0417/0419 VRB03KT TX22/0412Z TN10/0504Z

Weather observations and forecasts of more than 4000 airports (METAR and TAF reports).

The available stations are represented by yellow and red dots on the map.

Hover mouse over dot to see the name of the station.

Then click to see weather observations and forecasts.

To change the map : click on the green buttons with a black cross to zoom in, on the green button with a dash to zoom out, or on the green arrows for adjacent maps.


METAR-TAF: